Time;durP1;ratioP1;P1;durP2;ratioP2;P2;SDS_P1;SDS_P2;PMS_P1;PMS_P2;Temp;Humidity;BMP_temperature;BMP_pressure;BME280_temperature;BME280_humidity;BME280_pressure;Samples;Min_cycle;Max_cycle;Signal;HPM_P1;HPM_P2
2021/12/19 00:16:21;;;;;;;46.00;19.55;;;;;;;3.42;100.00;102281.88;20966865;28;20048;-69
2021/12/19 00:26:22;;;;;;;45.33;20.10;;;;;;;3.32;100.00;102288.34;20991439;23;20043;-84
2021/12/19 00:36:26;;;;;;;45.13;20.05;;;;;;;3.30;100.00;102267.56;20947256;28;20045;-83
2021/12/19 00:46:30;;;;;;;44.72;18.55;;;;;;;3.40;100.00;102252.44;20968171;28;21432;-83
2021/12/19 00:56:36;;;;;;;40.50;17.55;;;;;;;3.53;100.00;102247.84;20969708;28;20033;-84
2021/12/19 01:06:39;;;;;;;46.57;18.77;;;;;;;3.56;100.00;102228.97;20948870;28;20057;-84
2021/12/19 01:16:43;;;;;;;48.42;20.88;;;;;;;3.60;100.00;102228.28;20943997;28;20041;-84
2021/12/19 01:26:52;;;;;;;40.38;17.92;;;;;;;3.49;100.00;102226.94;20968934;28;20049;-84
2021/12/19 01:36:54;;;;;;;44.60;19.30;;;;;;;3.56;100.00;102227.28;20966938;28;20102;-84
2021/12/19 01:46:55;;;;;;;38.75;16.75;;;;;;;3.61;100.00;102224.88;20972726;28;20089;-84
2021/12/19 01:56:57;;;;;;;47.17;20.80;;;;;;;3.59;100.00;102224.81;20966223;28;20131;-84
2021/12/19 02:07:00;;;;;;;43.72;17.85;;;;;;;3.63;100.00;102223.22;20975131;28;20049;-84
2021/12/19 02:17:02;;;;;;;45.92;19.27;;;;;;;3.59;100.00;102209.28;20961937;28;20068;-84
2021/12/19 02:27:04;;;;;;;43.45;17.67;;;;;;;3.64;100.00;102200.78;20985642;28;20036;-84
2021/12/19 02:37:18;;;;;;;42.70;16.33;;;;;;;3.60;100.00;102200.69;20954264;28;20033;-84
2021/12/19 02:57:45;;;;;;;37.97;15.93;;;;;;;3.75;100.00;102182.28;20949322;28;20041;-83
2021/12/19 03:07:49;;;;;;;37.63;14.48;;;;;;;3.78;100.00;102169.44;20916280;28;20045;-84
2021/12/19 03:17:58;;;;;;;36.30;15.30;;;;;;;3.78;100.00;102161.66;20927481;28;20045;-84
2021/12/19 03:28:02;;;;;;;35.08;14.52;;;;;;;3.80;100.00;102164.34;20939613;28;20044;-84
2021/12/19 03:38:07;;;;;;;35.53;14.00;;;;;;;3.80;100.00;102161.75;20972893;28;20099;-84
2021/12/19 03:48:12;;;;;;;31.77;14.65;;;;;;;3.75;100.00;102153.78;20961363;28;20041;-84
2021/12/19 03:58:14;;;;;;;29.83;12.95;;;;;;;3.77;100.00;102146.06;20963040;28;20045;-84
2021/12/19 04:08:17;;;;;;;32.67;14.32;;;;;;;3.72;100.00;102127.75;20952205;28;20094;-84
2021/12/19 04:18:19;;;;;;;36.15;15.52;;;;;;;3.74;100.00;102118.34;20951828;28;20098;-84
2021/12/19 04:28:20;;;;;;;39.53;15.27;;;;;;;3.71;100.00;102120.81;20979996;28;20049;-84
2021/12/19 04:59:25;;;;;;;30.92;13.18;;;;;;;3.78;100.00;102098.59;20973008;28;20063;-85
2021/12/19 05:20:05;;;;;;;30.73;13.18;;;;;;;3.76;100.00;102089.91;20960918;28;20075;-85
2021/12/19 05:30:07;;;;;;;35.58;14.57;;;;;;;3.73;100.00;102097.53;20965546;28;20045;-84
2021/12/19 05:50:29;;;;;;;29.85;13.60;;;;;;;3.71;100.00;102088.84;20952585;28;20049;-85
2021/12/19 06:00:32;;;;;;;32.30;13.63;;;;;;;3.72;100.00;102068.16;20954754;28;20052;-85
2021/12/19 06:10:34;;;;;;;20.73;10.13;;;;;;;3.77;100.00;102050.22;20943052;28;20052;-84
2021/12/19 06:20:36;;;;;;;24.02;10.77;;;;;;;3.72;100.00;102031.03;20938836;28;20053;-84
2021/12/19 06:30:37;;;;;;;22.27;11.73;;;;;;;3.73;100.00;102025.00;20966673;28;20048;-84
2021/12/19 06:40:38;;;;;;;24.77;11.65;;;;;;;3.59;100.00;102030.56;20926453;28;20045;-84
2021/12/19 06:50:40;;;;;;;23.80;11.45;;;;;;;3.67;100.00;102033.44;20943935;28;20418;-84
2021/12/19 07:00:42;;;;;;;26.20;12.30;;;;;;;3.57;100.00;102031.31;20942006;28;20045;-85
2021/12/19 07:10:43;;;;;;;19.67;9.32;;;;;;;3.44;100.00;102019.59;20955326;28;20470;-83
2021/12/19 07:20:45;;;;;;;12.45;6.30;;;;;;;3.33;100.00;102037.28;20917254;28;20037;-84
2021/12/19 07:30:47;;;;;;;11.07;6.05;;;;;;;3.28;100.00;102025.00;20937587;28;20386;-84
2021/12/19 07:40:50;;;;;;;11.20;5.72;;;;;;;3.23;100.00;102042.94;20941158;28;20037;-84
2021/12/19 07:50:52;;;;;;;10.00;5.70;;;;;;;3.27;100.00;102042.22;20921402;28;20486;-84
2021/12/19 08:00:53;;;;;;;7.47;4.07;;;;;;;3.18;100.00;102028.91;20953410;28;20036;-84
2021/12/19 08:21:15;;;;;;;5.18;2.75;;;;;;;3.23;100.00;102035.16;20955139;28;20041;-85
2021/12/19 08:31:17;;;;;;;5.47;2.50;;;;;;;3.20;100.00;102022.09;20936386;28;20111;-85
2021/12/19 08:41:19;;;;;;;6.55;2.83;;;;;;;3.28;100.00;101999.97;20933885;28;20071;-86
2021/12/19 08:51:20;;;;;;;5.88;2.85;;;;;;;3.34;100.00;102009.69;20934818;28;20048;-85
2021/12/19 09:01:22;;;;;;;5.35;2.35;;;;;;;3.42;99.61;101995.34;20925866;28;20056;-85
2021/12/19 09:11:24;;;;;;;6.10;2.88;;;;;;;3.45;99.46;101989.41;20930870;28;20049;-86
2021/12/19 09:21:25;;;;;;;5.10;2.50;;;;;;;3.31;100.00;101992.34;20959221;28;20464;-84
2021/12/19 09:31:29;;;;;;;4.40;2.17;;;;;;;3.48;98.49;102002.47;20963870;28;20045;-85
2021/12/19 09:41:33;;;;;;;8.73;3.88;;;;;;;3.75;97.74;102000.94;20930135;28;20055;-85
2021/12/19 09:51:36;;;;;;;5.35;2.67;;;;;;;3.81;95.43;101990.81;20948392;28;20041;-84
2021/12/19 10:01:37;;;;;;;6.78;3.30;;;;;;;4.18;94.81;101978.31;20954639;28;20048;-85
2021/12/19 10:11:53;;;;;;;6.20;2.72;;;;;;;4.24;95.02;101956.06;20944237;28;20094;-88
2021/12/19 10:21:55;;;;;;;3.25;1.45;;;;;;;4.08;93.24;101938.22;20935542;28;20037;-85
2021/12/19 10:32:06;;;;;;;3.20;1.40;;;;;;;4.40;92.74;101941.03;20919067;28;20416;-85
2021/12/19 10:42:10;;;;;;;2.90;1.25;;;;;;;4.40;92.16;101915.09;20935062;28;20137;-85
2021/12/19 10:52:12;;;;;;;2.80;1.27;;;;;;;4.40;90.96;101887.44;20928605;28;20123;-85
2021/12/19 11:02:14;;;;;;;4.40;1.98;;;;;;;4.31;91.77;101880.28;20942992;28;20037;-85
2021/12/19 11:12:15;;;;;;;5.15;1.88;;;;;;;4.34;92.98;101853.56;20937921;28;20049;-85
2021/12/19 11:22:27;;;;;;;3.90;1.90;;;;;;;4.34;93.29;101844.06;20938823;28;20047;-85
2021/12/19 11:32:43;;;;;;;6.60;2.78;;;;;;;4.34;94.29;101818.13;20911370;28;20408;-85
2021/12/19 11:42:45;;;;;;;7.25;3.15;;;;;;;4.43;94.03;101801.09;20932448;28;20073;-85
2021/12/19 11:52:48;;;;;;;7.53;3.58;;;;;;;4.52;94.12;101780.66;20940662;28;20672;-85
2021/12/19 12:02:49;;;;;;;5.95;2.97;;;;;;;4.37;92.53;101756.00;20932644;28;20048;-84
2021/12/19 12:24:00;;;;;;;8.95;4.05;;;;;;;4.45;92.88;101725.09;20967507;28;20116;-86
2021/12/19 12:34:03;;;;;;;11.10;5.15;;;;;;;4.42;93.11;101704.28;20943051;28;20045;-86
2021/12/19 12:44:10;;;;;;;10.02;4.25;;;;;;;4.42;92.45;101690.44;20972129;28;20466;-86
2021/12/19 12:54:20;;;;;;;8.82;4.07;;;;;;;4.27;94.08;101681.38;20935720;28;20809;-85
2021/12/19 13:04:26;;;;;;;6.85;3.72;;;;;;;4.42;93.02;101664.50;20940801;28;20103;-85
2021/12/19 13:14:32;;;;;;;11.15;4.88;;;;;;;4.54;92.90;101654.47;20941699;28;20053;-85
2021/12/19 13:24:41;;;;;;;12.77;5.45;;;;;;;4.45;93.22;101636.94;20956421;28;20100;-85
2021/12/19 13:34:43;;;;;;;11.55;5.35;;;;;;;4.60;93.07;101628.75;20973039;28;20487;-85
2021/12/19 13:44:47;;;;;;;12.10;6.10;;;;;;;4.41;93.73;101621.25;20977866;28;20044;-84
2021/12/19 13:54:49;;;;;;;10.18;5.18;;;;;;;4.40;93.08;101607.41;20946789;28;20383;-85
2021/12/19 14:04:51;;;;;;;10.95;5.93;;;;;;;4.29;93.62;101604.50;20945168;28;20051;-87
2021/12/19 14:14:52;;;;;;;10.13;5.43;;;;;;;4.28;93.88;101596.69;20963990;28;20426;-84
2021/12/19 14:24:58;;;;;;;9.20;4.63;;;;;;;4.22;94.14;101594.81;20957712;28;20094;-84
2021/12/19 14:35:12;;;;;;;11.02;5.57;;;;;;;4.11;94.78;101591.00;20981276;28;20044;-84
2021/12/19 14:45:22;;;;;;;12.50;5.55;;;;;;;4.11;94.19;101571.13;20937049;28;20049;-84
2021/12/19 14:55:26;;;;;;;9.52;5.13;;;;;;;3.96;94.27;101564.63;20944035;28;20060;-84
2021/12/19 15:05:28;;;;;;;10.93;5.23;;;;;;;3.91;93.86;101561.03;20955224;28;20127;-84
2021/12/19 15:15:30;;;;;;;12.68;6.47;;;;;;;3.78;94.88;101555.47;20925473;28;20045;-85
2021/12/19 15:25:31;;;;;;;13.10;7.03;;;;;;;3.73;94.42;101550.97;20952517;28;20041;-85
2021/12/19 15:35:33;;;;;;;26.58;12.68;;;;;;;3.60;94.08;101547.16;20924048;28;20094;-84
2021/12/19 15:45:35;;;;;;;15.52;7.85;;;;;;;3.49;95.31;101548.50;20961069;28;20049;-84
2021/12/19 15:55:38;;;;;;;14.82;7.47;;;;;;;3.44;95.39;101537.13;20950746;28;20071;-84
2021/12/19 16:05:47;;;;;;;15.23;7.90;;;;;;;3.44;96.73;101547.50;20947341;28;20070;-85
2021/12/19 16:15:49;;;;;;;14.75;7.60;;;;;;;3.40;95.55;101535.28;20963199;28;20067;-85
2021/12/19 16:25:55;;;;;;;15.77;8.20;;;;;;;3.40;95.43;101530.09;20935500;28;20044;-85
2021/12/19 16:35:57;;;;;;;16.98;8.52;;;;;;;3.40;96.17;101520.63;20935697;28;20053;-86
2021/12/19 16:46:05;;;;;;;19.52;12.05;;;;;;;3.34;97.03;101521.31;20958907;28;20052;-86
2021/12/19 16:56:08;;;;;;;17.00;8.57;;;;;;;3.42;96.48;101512.91;20924093;28;20086;-86
2021/12/19 17:06:10;;;;;;;16.33;8.13;;;;;;;3.31;96.73;101510.88;20947403;28;20147;-87
2021/12/19 17:16:16;;;;;;;16.23;8.15;;;;;;;3.31;96.58;101520.34;20953409;28;20070;-87
2021/12/19 17:26:18;;;;;;;15.82;8.48;;;;;;;3.36;96.96;101528.25;20938766;28;20048;-87
2021/12/19 17:36:23;;;;;;;19.13;9.45;;;;;;;3.30;97.03;101518.56;20933905;28;20049;-87
2021/12/19 17:46:26;;;;;;;18.75;9.40;;;;;;;3.29;97.33;101512.53;20930147;28;20087;-86
2021/12/19 17:56:28;;;;;;;19.55;9.85;;;;;;;3.31;96.96;101513.47;20931511;28;20057;-84
2021/12/19 18:06:33;;;;;;;19.83;9.80;;;;;;;3.37;96.39;101509.31;20949643;28;20040;-85
2021/12/19 18:16:35;;;;;;;30.95;15.05;;;;;;;3.29;97.22;101517.69;20941749;28;20102;-85
2021/12/19 18:26:36;;;;;;;22.05;11.57;;;;;;;3.33;97.34;101518.69;20950103;28;20138;-85
2021/12/19 18:36:40;;;;;;;24.63;13.15;;;;;;;3.29;96.59;101517.69;20951719;28;20051;-85
2021/12/19 18:56:45;;;;;;;30.83;14.13;;;;;;;3.17;97.90;101494.03;20934956;28;20049;-85
2021/12/19 19:06:49;;;;;;;35.00;15.80;;;;;;;3.12;98.18;101495.59;20932984;28;20040;-86
2021/12/19 19:16:50;;;;;;;41.53;16.05;;;;;;;3.04;97.90;101484.13;20955223;28;20067;-85
2021/12/19 19:26:58;;;;;;;35.63;16.15;;;;;;;3.04;98.83;101503.09;20933060;28;20037;-85
2021/12/19 19:37:03;;;;;;;44.85;18.63;;;;;;;3.05;98.19;101501.38;20941453;28;20049;-85
2021/12/19 19:57:27;;;;;;;39.40;18.23;;;;;;;3.05;99.08;101509.16;20979979;28;20057;-85
2021/12/19 20:07:29;;;;;;;37.65;16.83;;;;;;;2.99;98.29;101508.97;20957071;28;20048;-85
2021/12/19 20:17:32;;;;;;;44.17;18.88;;;;;;;3.03;98.71;101505.66;20977623;28;20037;-85
2021/12/19 20:27:33;;;;;;;52.30;21.02;;;;;;;2.98;98.75;101504.63;20997242;28;20075;-86
2021/12/19 20:37:35;;;;;;;41.20;16.60;;;;;;;2.98;98.79;101509.78;20928117;28;20060;-86
2021/12/19 20:47:37;;;;;;;40.95;18.70;;;;;;;2.99;98.66;101503.78;20905232;28;20073;-85
2021/12/19 20:57:39;;;;;;;41.22;17.77;;;;;;;3.00;98.23;101519.34;20924012;28;20060;-86
2021/12/19 21:07:41;;;;;;;35.45;16.77;;;;;;;3.11;97.98;101517.09;20894571;28;20050;-86
2021/12/19 21:28:06;;;;;;;37.53;16.60;;;;;;;3.01;97.96;101509.88;20888045;28;20102;-85
2021/12/19 21:48:30;;;;;;;40.33;16.70;;;;;;;2.97;98.24;101505.41;20948766;28;20041;-86
2021/12/19 21:58:32;;;;;;;34.90;16.20;;;;;;;2.99;98.50;101503.78;20970428;28;20045;-85
2021/12/19 22:08:34;;;;;;;38.30;15.95;;;;;;;3.04;98.66;101489.28;20928927;28;20481;-85
2021/12/19 22:18:39;;;;;;;41.10;18.15;;;;;;;2.98;97.87;101499.44;20900475;28;20065;-84
2021/12/19 22:28:43;;;;;;;36.75;16.45;;;;;;;3.01;98.61;101494.34;20892442;28;20056;-84
2021/12/19 22:38:46;;;;;;;35.43;15.40;;;;;;;2.96;98.44;101482.97;20880030;28;20037;-85
2021/12/19 22:48:48;;;;;;;36.67;15.95;;;;;;;3.03;98.35;101484.94;20919131;28;20145;-85
2021/12/19 22:58:49;;;;;;;38.25;16.17;;;;;;;2.97;98.17;101474.38;20897363;28;20141;-86
2021/12/19 23:08:51;;;;;;;47.35;19.42;;;;;;;3.00;99.09;101471.91;20904290;28;20084;-85
2021/12/19 23:18:57;;;;;;;58.88;23.42;;;;;;;3.08;98.99;101460.09;20884413;28;20522;-85
2021/12/19 23:28:59;;;;;;;57.17;24.00;;;;;;;3.07;98.79;101453.16;20838550;28;20056;-84
2021/12/19 23:49:11;;;;;;;50.67;22.45;;;;;;;3.01;99.26;101447.78;20887408;28;20049;-85
2021/12/19 23:59:13;;;;;;;52.05;21.65;;;;;;;3.07;98.61;101440.25;20897318;28;20052;-85
